Celebrity Equinox — 9HXD9 — position and weather

sailwx.info

Track history (hours):
 
Tides and Currents Weather Stations Pressure Air Temp Water Temp Dewpoint Dewpoint Depression Visibility Wind Speed Wind Dir Waves Ship Positions

Celebrity Equinox

Last reported at 2014-Nov-28 11:27 UTC. Time now 2014-Nov-28 13:18 UTC.
Position N 18°01' W 063°03'.

Length 316 m; draft 9 m.

Type: Ship. MMSI: 249667000.

Date/timePositionNaut miles runAvg speedWind from/ knotsBaromVisibWave heightAir tempDewpointWater temp
2014-Nov-28 11:27N 18°01' W 063°03'6 5.4
2014-Nov-28 10:25N 17°56' W 063°05'910.9
2014-Nov-28 09:33N 17°46' W 063°06'1210.8
2014-Nov-28 08:27N 17°34' W 063°05'7712.5
2014-Nov-28 02:20N 16°29' W 062°23'  
2014-Nov-25 08:10N 17°29' W 063°05'1910.3
2014-Nov-25 06:21N 17°44' W 063°17'8 9.3
2014-Nov-25 05:30N 17°47' W 063°24'12 9.1
2014-Nov-25 04:13N 17°52' W 063°35'6 8.9
2014-Nov-25 03:33N 17°54' W 063°41'8 8.5
2014-Nov-25 02:33N 17°57' W 063°49'  
2014-Nov-21 23:34N 25°50' W 079°49'1515.1
2014-Nov-21 22:33N 26°01' W 080°01'7 7.2
2014-Nov-21 21:33N 26°05' W 080°07'0 0.0
2014-Nov-21 20:32N 26°05' W 080°07'0 0.0
2014-Nov-21 19:26N 26°05' W 080°07'0 0.0
2014-Nov-21 18:31N 26°05' W 080°07'0 0.0
2014-Nov-21 17:28N 26°05' W 080°07'0 0.0
2014-Nov-21 16:33N 26°05' W 080°07'0 0.0
2014-Nov-21 15:30N 26°05' W 080°07'0 0.0
2014-Nov-21 14:33N 26°05' W 080°07'0 0.0
2014-Nov-21 13:32N 26°05' W 080°07'0 0.0
2014-Nov-21 12:26N 26°05' W 080°07'0 0.0
2014-Nov-21 11:31N 26°05' W 080°07'0 0.0
2014-Nov-21 10:34N 26°05' W 080°07'1010.1
2014-Nov-21 09:34N 26°01' W 079°57'1514.9
2014-Nov-21 08:34N 25°50' W 079°47'  
Track history (hours):
 
Tides and Currents Weather Stations Pressure Air Temp Water Temp Dewpoint Dewpoint Depression Visibility Wind Speed Wind Dir Waves Ship Positions

Celebrity Equinox

Last reported at 2014-Nov-28 11:27 UTC. Time now 2014-Nov-28 13:18 UTC.
Position N 18°01' W 063°03'.

Length 316 m; draft 9 m.

Type: Ship. MMSI: 249667000.

Date/timePositionNaut miles runAvg speedWind from/ knotsBaromVisibWave heightAir tempDewpointWater temp
2014-Nov-28 11:27N 18°01' W 063°03'6 5.4
2014-Nov-28 10:25N 17°56' W 063°05'910.9
2014-Nov-28 09:33N 17°46' W 063°06'1210.8
2014-Nov-28 08:27N 17°34' W 063°05'7712.5
2014-Nov-28 02:20N 16°29' W 062°23'  
2014-Nov-25 08:10N 17°29' W 063°05'1910.3
2014-Nov-25 06:21N 17°44' W 063°17'8 9.3
2014-Nov-25 05:30N 17°47' W 063°24'12 9.1
2014-Nov-25 04:13N 17°52' W 063°35'6 8.9
2014-Nov-25 03:33N 17°54' W 063°41'8 8.5
2014-Nov-25 02:33N 17°57' W 063°49'  
2014-Nov-21 23:34N 25°50' W 079°49'1515.1
2014-Nov-21 22:33N 26°01' W 080°01'7 7.2
2014-Nov-21 21:33N 26°05' W 080°07'0 0.0
2014-Nov-21 20:32N 26°05' W 080°07'0 0.0
2014-Nov-21 19:26N 26°05' W 080°07'0 0.0
2014-Nov-21 18:31N 26°05' W 080°07'0 0.0
2014-Nov-21 17:28N 26°05' W 080°07'0 0.0
2014-Nov-21 16:33N 26°05' W 080°07'0 0.0
2014-Nov-21 15:30N 26°05' W 080°07'0 0.0
2014-Nov-21 14:33N 26°05' W 080°07'0 0.0
2014-Nov-21 13:32N 26°05' W 080°07'0 0.0
2014-Nov-21 12:26N 26°05' W 080°07'0 0.0
2014-Nov-21 11:31N 26°05' W 080°07'0 0.0
2014-Nov-21 10:34N 26°05' W 080°07'1010.1
2014-Nov-21 09:34N 26°01' W 079°57'1514.9
2014-Nov-21 08:34N 25°50' W 079°47'  

Dump ship's entire track history